Time;durP1;ratioP1;P1;durP2;ratioP2;P2;SDS_P1;SDS_P2;PMS_P1;PMS_P2;Temp;Humidity;BMP_temperature;BMP_pressure;BME280_temperature;BME280_humidity;BME280_pressure;Samples;Min_cycle;Max_cycle;Signal;HPM_P1;HPM_P2
2023/04/15 00:01:04;;;;;;;;;5.00;3.00;;;;;13.20;71.62;100596.09;5076591;28;46007;-75
2023/04/15 00:03:30;;;;;;;;;8.50;4.25;;;;;13.04;71.96;100586.16;5073339;28;45434;-68
2023/04/15 00:05:57;;;;;;;;;6.50;3.00;;;;;13.14;71.58;100585.50;5075280;28;45391;-67
2023/04/15 00:08:23;;;;;;;;;5.33;3.33;;;;;13.14;71.32;100616.97;5074567;28;45492;-67
2023/04/15 00:10:49;;;;;;;;;5.00;2.00;;;;;13.14;70.75;100601.22;5076349;28;45854;-66
2023/04/15 00:13:15;;;;;;;;;3.00;1.67;;;;;13.06;70.46;100600.19;5066937;28;45466;-73
2023/04/15 00:15:41;;;;;;;;;3.33;2.00;;;;;13.07;70.93;100600.22;5073896;28;45349;-75
2023/04/15 00:18:07;;;;;;;;;3.00;2.33;;;;;13.10;70.34;100596.78;5076854;28;45431;-74
2023/04/15 00:20:34;;;;;;;;;4.00;3.33;;;;;13.10;70.92;100604.66;5070883;28;45516;-75
2023/04/15 00:23:01;;;;;;;;;3.00;2.00;;;;;13.10;70.67;100592.41;5067334;28;45420;-71
2023/04/15 00:25:27;;;;;;;;;5.33;5.00;;;;;13.16;71.14;100594.28;5077124;28;45374;-67
2023/04/15 00:27:52;;;;;;;;;7.75;2.00;;;;;13.18;72.08;100594.31;5063270;28;45325;-74
2023/04/15 00:30:18;;;;;;;;;6.25;4.75;;;;;13.12;72.05;100581.97;5076173;28;46522;-72
2023/04/15 00:32:44;;;;;;;;;6.75;4.50;;;;;13.14;72.46;100593.38;5059972;28;45758;-72
2023/04/15 00:35:09;;;;;;;;;7.00;4.75;;;;;13.13;72.08;100599.47;5073262;28;45497;-73
2023/04/15 00:37:35;;;;;;;;;4.00;2.75;;;;;13.05;72.31;100595.78;5075126;28;45511;-68
2023/04/15 00:40:04;;;;;;;;;4.75;4.25;;;;;13.06;72.44;100594.94;5074683;28;46265;-73
2023/04/15 00:42:30;;;;;;;;;8.75;4.00;;;;;13.06;72.11;100587.09;5066455;28;45604;-73
2023/04/15 00:44:56;;;;;;;;;5.67;4.00;;;;;13.12;72.48;100587.19;5073547;28;45540;-74
2023/04/15 00:47:22;;;;;;;;;6.33;4.00;;;;;13.12;72.35;100587.19;5075653;28;45353;-75
2023/04/15 00:49:47;;;;;;;;;5.50;3.25;;;;;13.09;72.10;100587.13;5076432;28;45504;-74
2023/04/15 00:52:13;;;;;;;;;5.75;3.75;;;;;13.16;72.34;100601.28;5058141;28;45837;-75
2023/04/15 00:54:39;;;;;;;;;4.50;3.75;;;;;13.17;72.00;100608.28;5073744;28;45560;-71
2023/04/15 00:57:06;;;;;;;;;5.75;3.50;;;;;13.15;72.19;100603.03;5058049;28;45433;-74
2023/04/15 00:59:33;;;;;;;;;2.50;2.00;;;;;13.17;71.72;100598.69;5075451;28;46061;-74
2023/04/15 01:01:59;;;;;;;;;8.00;3.25;;;;;13.19;71.93;100599.59;5067738;28;45658;-68
2023/04/15 01:04:24;;;;;;;;;6.00;4.50;;;;;13.10;71.74;100587.16;5075996;28;45420;-74
2023/04/15 01:06:50;;;;;;;;;2.67;2.00;;;;;13.19;71.41;100604.84;5075639;28;45487;-75
2023/04/15 01:09:16;;;;;;;;;5.00;3.25;;;;;13.10;71.56;100595.03;5075516;28;46128;-75
2023/04/15 01:11:42;;;;;;;;;4.00;3.00;;;;;13.17;71.22;100603.03;5075371;28;45897;-75
2023/04/15 01:14:09;;;;;;;;;4.00;3.75;;;;;13.11;71.21;100588.03;5075499;28;45820;-75
2023/04/15 01:16:38;;;;;;;;;6.50;3.50;;;;;13.16;71.23;100582.91;5061555;28;45572;-73
2023/04/15 01:19:07;;;;;;;;;7.00;5.00;;;;;13.21;70.43;100597.91;5075579;28;45950;-74
2023/04/15 01:21:37;;;;;;;;;5.00;2.50;;;;;13.20;70.92;100593.47;5054836;28;45388;-74
2023/04/15 01:24:09;;;;;;;;;2.25;1.75;;;;;13.23;70.75;100582.16;5056984;28;45516;-75
2023/04/15 01:26:38;;;;;;;;;2.50;2.00;;;;;13.24;70.14;100584.81;5074147;28;45462;-74
2023/04/15 01:29:04;;;;;;;;;5.00;3.00;;;;;13.19;69.96;100582.94;5074989;28;45532;-74
2023/04/15 01:31:30;;;;;;;;;5.00;3.00;;;;;13.26;70.14;100585.72;5075184;28;45519;-74
2023/04/15 01:33:55;;;;;;;;;3.25;3.00;;;;;13.29;69.88;100584.91;5076796;28;45382;-73
2023/04/15 01:36:21;;;;;;;;;4.50;3.00;;;;;13.29;69.90;100572.72;5076362;28;45489;-75
2023/04/15 01:38:47;;;;;;;;;4.00;0.67;;;;;13.27;69.90;100577.03;5076006;28;46124;-77
2023/04/15 01:41:13;;;;;;;;;6.00;2.00;;;;;13.28;70.16;100584.03;5073253;28;45316;-76
2023/04/15 01:43:38;;;;;;;;;6.00;2.00;;;;;13.29;69.86;100584.91;5076058;28;45486;-73
2023/04/15 01:46:05;;;;;;;;;4.00;1.75;;;;;13.24;70.26;100589.19;5076043;28;45552;-75
2023/04/15 01:48:31;;;;;;;;;4.00;3.00;;;;;13.28;70.38;100598.88;5075860;28;46073;-73
2023/04/15 01:50:57;;;;;;;;;7.75;4.25;;;;;13.20;71.16;100609.22;5076173;28;45508;-75
2023/04/15 01:53:24;;;;;;;;;5.75;3.25;;;;;13.14;73.14;100619.59;5075916;28;45605;-71
2023/04/15 01:55:50;;;;;;;;;6.75;4.75;;;;;12.99;72.47;100609.69;5075942;28;45465;-72
2023/04/15 01:58:17;;;;;;;;;2.00;2.00;;;;;12.97;73.00;100613.09;5057587;28;46449;-76
2023/04/15 02:00:42;;;;;;;;;4.67;3.00;;;;;12.92;73.06;100608.66;5074793;28;45375;-76
2023/04/15 02:03:08;;;;;;;;;6.75;3.00;;;;;12.91;72.55;100608.59;5072531;28;45296;-76
2023/04/15 02:05:34;;;;;;;;;3.00;2.00;;;;;12.91;72.29;100599.03;5056446;28;45469;-76
2023/04/15 02:08:00;;;;;;;;;4.67;3.00;;;;;12.78;72.52;100583.88;5075558;28;45254;-76
2023/04/15 02:10:26;;;;;;;;;5.75;2.25;;;;;12.88;72.30;100590.22;5076644;28;45643;-77
2023/04/15 02:12:52;;;;;;;;;3.67;2.00;;;;;12.89;72.30;100597.19;5073622;28;45670;-76
2023/04/15 02:15:18;;;;;;;;;3.33;2.00;;;;;12.91;72.73;100603.34;5076461;28;45445;-76
2023/04/15 02:17:49;;;;;;;;;4.33;2.00;;;;;12.92;72.44;100606.03;5076356;28;45862;-76
2023/04/15 02:20:15;;;;;;;;;4.00;2.33;;;;;12.88;72.13;100587.59;5076335;28;45386;-77
2023/04/15 02:22:41;;;;;;;;;5.67;3.33;;;;;12.91;71.62;100608.59;5075983;28;45465;-76
2023/04/15 02:25:07;;;;;;;;;4.00;1.00;;;;;12.94;71.95;100609.56;5076409;28;45500;-76
2023/04/15 02:27:35;;;;;;;;;1.00;1.00;;;;;12.96;71.63;100613.97;5077463;28;46055;-76
2023/04/15 02:30:00;;;;;;;;;1.67;1.33;;;;;12.98;71.48;100614.88;5079748;28;45387;-73
2023/04/15 02:32:27;;;;;;;;;3.67;2.00;;;;;12.97;70.92;100613.09;5079767;28;45459;-76
2023/04/15 02:34:53;;;;;;;;;2.00;2.00;;;;;12.88;70.55;100604.19;5080179;28;45387;-76
2023/04/15 02:37:19;;;;;;;;;4.00;2.00;;;;;12.93;71.05;100614.75;5079275;28;45500;-76
2023/04/15 02:39:45;;;;;;;;;2.00;1.00;;;;;12.91;70.88;100606.91;5079229;28;45440;-75
2023/04/15 02:42:10;;;;;;;;;2.67;2.00;;;;;12.92;71.13;100600.78;5041755;28;45518;-77
2023/04/15 02:44:36;;;;;;;;;5.00;0.67;;;;;12.88;71.01;100591.09;5068876;28;45415;-77
2023/04/15 02:47:03;;;;;;;;;3.00;1.00;;;;;13.00;71.17;100602.69;5079443;28;46100;-74
2023/04/15 02:49:29;;;;;;;;;4.00;2.00;;;;;13.02;70.89;100612.34;5080243;28;45480;-76
2023/04/15 02:51:57;;;;;;;;;3.67;2.67;;;;;13.06;70.76;100605.44;5079270;28;45569;-77
2023/04/15 02:54:22;;;;;;;;;2.67;2.00;;;;;13.07;70.75;100615.06;5079621;28;45450;-76
2023/04/15 02:56:49;;;;;;;;;2.00;2.00;;;;;13.01;71.32;100604.44;5061153;28;45446;-76
2023/04/15 02:59:14;;;;;;;;;1.67;1.00;;;;;12.93;71.47;100597.31;5079420;28;45527;-69
2023/04/15 03:01:40;;;;;;;;;3.00;1.00;;;;;13.01;71.66;100609.69;5079043;28;45671;-68
2023/04/15 03:04:07;;;;;;;;;2.67;1.33;;;;;13.05;71.54;100611.53;5079081;28;47369;-75
2023/04/15 03:06:33;;;;;;;;;4.00;1.00;;;;;12.98;71.69;100602.66;5079009;28;45420;-75
2023/04/15 03:08:59;;;;;;;;;2.00;1.00;;;;;12.97;71.70;100608.75;5079401;28;45446;-68
2023/04/15 03:11:28;;;;;;;;;2.67;2.67;;;;;12.96;71.71;100611.34;5079035;28;45497;-77
2023/04/15 03:13:54;;;;;;;;;5.33;2.33;;;;;13.00;71.64;100602.69;5079224;28;45439;-68
2023/04/15 03:16:19;;;;;;;;;2.00;1.00;;;;;13.03;71.73;100621.09;5079246;28;46176;-76
2023/04/15 03:18:45;;;;;;;;;2.33;1.00;;;;;13.06;72.16;100610.69;5078528;28;45866;-68
2023/04/15 03:21:10;;;;;;;;;2.33;1.00;;;;;13.04;71.59;100601.91;5079484;28;45354;-69
2023/04/15 03:23:36;;;;;;;;;2.00;1.67;;;;;13.04;71.40;100628.13;5079238;28;45556;-76
2023/04/15 03:26:02;;;;;;;;;3.00;1.33;;;;;13.04;71.55;100628.13;5057319;28;45576;-74
2023/04/15 03:28:28;;;;;;;;;3.33;1.00;;;;;13.03;71.66;100635.13;5077023;28;45654;-77
2023/04/15 03:30:54;;;;;;;;;4.00;1.67;;;;;13.06;71.48;100629.03;5072370;28;45308;-74
2023/04/15 03:33:20;;;;;;;;;2.67;1.67;;;;;13.03;72.53;100628.97;5069427;28;45438;-77
2023/04/15 03:35:46;;;;;;;;;2.00;1.33;;;;;12.96;72.14;100633.19;5079181;28;45510;-77
2023/04/15 03:38:11;;;;;;;;;5.00;1.67;;;;;12.99;72.65;100628.03;5078316;28;45623;-75
2023/04/15 03:40:40;;;;;;;;;6.00;1.00;;;;;12.94;71.61;100624.41;5078315;28;45521;-77
2023/04/15 03:43:06;;;;;;;;;2.00;1.00;;;;;12.99;71.33;100645.47;5078967;28;45303;-76
2023/04/15 03:45:32;;;;;;;;;0.75;0.75;;;;;13.00;71.03;100629.78;5078391;28;45691;-77
2023/04/15 03:47:57;;;;;;;;;1.33;1.00;;;;;12.99;71.24;100640.25;5060265;28;45417;-77
2023/04/15 03:50:23;;;;;;;;;2.00;1.00;;;;;12.83;70.81;100637.31;5078171;28;45830;-77
2023/04/15 03:52:48;;;;;;;;;3.00;1.00;;;;;12.81;71.03;100644.25;5079074;28;45375;-76
2023/04/15 03:55:14;;;;;;;;;0.00;0.00;;;;;12.79;72.08;100656.41;5049937;28;46212;-76
2023/04/15 03:57:40;;;;;;;;;1.67;0.00;;;;;12.81;71.74;100649.50;5072781;28;45452;-76
2023/04/15 04:00:08;;;;;;;;;1.00;0.00;;;;;12.85;71.34;100663.53;5077672;28;45306;-69
2023/04/15 04:02:34;;;;;;;;;3.67;0.00;;;;;12.76;71.65;100651.13;5078670;28;45368;-76
2023/04/15 04:04:59;;;;;;;;;0.00;0.00;;;;;12.69;71.58;100650.09;5078095;28;46028;-76
2023/04/15 04:07:25;;;;;;;;;3.33;1.00;;;;;12.75;71.70;100662.44;5063196;27;45549;-75
2023/04/15 04:09:50;;;;;;;;;0.33;0.00;;;;;12.74;71.48;100658.94;5076823;28;46507;-75
2023/04/15 04:12:16;;;;;;;;;1.00;1.00;;;;;12.71;71.83;100657.97;5078746;28;45679;-69
2023/04/15 04:14:42;;;;;;;;;0.67;0.67;;;;;12.67;71.98;100640.41;5060098;28;46698;-70
2023/04/15 04:17:10;;;;;;;;;3.00;1.00;;;;;12.79;71.64;100655.53;5078521;28;45545;-68
2023/04/15 04:19:36;;;;;;;;;0.00;0.00;;;;;12.82;71.55;100661.75;5077543;28;45412;-76
2023/04/15 04:22:01;;;;;;;;;2.00;1.00;;;;;12.85;71.50;100660.91;5078573;28;45573;-75
2023/04/15 04:24:27;;;;;;;;;2.67;2.00;;;;;12.81;71.80;100680.03;5077709;28;46529;-74
2023/04/15 04:26:52;;;;;;;;;1.67;1.00;;;;;12.68;71.81;100666.66;5077964;28;45189;-76
2023/04/15 04:29:18;;;;;;;;;2.00;0.33;;;;;12.78;71.80;100680.00;5077664;28;45395;-76
2023/04/15 04:31:43;;;;;;;;;1.00;1.00;;;;;12.75;72.20;100688.66;5078292;28;45377;-77
2023/04/15 04:34:09;;;;;;;;;1.00;0.33;;;;;12.73;72.19;100687.72;5076904;28;45852;-76
2023/04/15 04:36:34;;;;;;;;;3.00;2.00;;;;;12.74;72.37;100700.88;5078188;28;45287;-76
2023/04/15 04:39:00;;;;;;;;;1.33;0.00;;;;;12.65;72.31;100689.28;5077301;28;45491;-76
2023/04/15 04:41:26;;;;;;;;;2.33;1.00;;;;;12.70;71.81;100691.16;5078559;28;45475;-77
2023/04/15 04:43:51;;;;;;;;;2.00;1.00;;;;;12.71;71.72;100692.06;5077124;28;46098;-76
2023/04/15 04:46:17;;;;;;;;;2.33;1.00;;;;;12.70;71.68;100699.03;5077789;28;45580;-76
2023/04/15 04:48:42;;;;;;;;;2.00;1.00;;;;;12.68;71.64;100698.13;5077371;28;45534;-76
2023/04/15 04:51:08;;;;;;;;;0.67;0.00;;;;;12.71;70.90;100699.91;5077476;28;45473;-70
2023/04/15 04:53:34;;;;;;;;;2.00;0.00;;;;;12.67;70.87;100704.22;5077812;28;45525;-76
2023/04/15 04:56:00;;;;;;;;;1.00;0.33;;;;;12.69;71.48;100699.91;5077782;28;45441;-76
2023/04/15 04:58:26;;;;;;;;;1.33;1.00;;;;;12.71;70.69;100695.59;5077135;28;45346;-76
2023/04/15 05:00:51;;;;;;;;;2.67;1.00;;;;;12.70;70.39;100688.56;5077300;28;45364;-76
2023/04/15 05:03:17;;;;;;;;;1.33;0.67;;;;;12.70;70.85;100706.03;5076578;28;46124;-75
2023/04/15 05:05:43;;;;;;;;;1.00;1.00;;;;;12.69;71.79;100699.91;5077497;28;45373;-76
2023/04/15 05:08:08;;;;;;;;;2.00;1.00;;;;;12.64;72.18;100709.38;5077252;28;45464;-75
2023/04/15 05:10:34;;;;;;;;;1.00;0.00;;;;;12.69;71.47;100717.34;5077503;28;45449;-75
2023/04/15 05:13:00;;;;;;;;;1.00;1.00;;;;;12.65;71.79;100702.38;5077179;28;45374;-76
2023/04/15 05:15:25;;;;;;;;;2.00;0.67;;;;;12.69;71.90;100719.97;5076572;28;45688;-76
2023/04/15 05:17:51;;;;;;;;;2.00;0.00;;;;;12.66;72.89;100730.38;5076671;28;45449;-74
2023/04/15 05:20:17;;;;;;;;;1.00;0.33;;;;;12.56;72.95;100744.13;5077254;28;45422;-75
2023/04/15 05:22:42;;;;;;;;;0.00;0.00;;;;;12.45;72.21;100744.72;5076782;28;45582;-75
2023/04/15 05:25:08;;;;;;;;;0.67;0.00;;;;;12.45;72.12;100749.94;5077655;28;45415;-76
2023/04/15 05:27:34;;;;;;;;;0.67;0.00;;;;;12.27;71.95;100745.13;5077982;28;45548;-74
2023/04/15 05:30:00;;;;;;;;;0.00;0.00;;;;;12.21;72.24;100741.47;5078750;28;45323;-76
2023/04/15 05:32:25;;;;;;;;;1.33;0.00;;;;;12.15;72.26;100736.94;5078713;28;45584;-76
2023/04/15 05:34:51;;;;;;;;;1.00;0.00;;;;;12.13;72.25;100747.38;5079098;28;45449;-77
2023/04/15 05:37:16;;;;;;;;;0.00;0.00;;;;;12.13;72.16;100749.13;5079624;27;45558;-77
2023/04/15 05:39:42;;;;;;;;;1.67;0.00;;;;;12.14;72.18;100753.53;5077184;28;45339;-69
2023/04/15 05:42:07;;;;;;;;;1.00;0.00;;;;;12.09;72.28;100748.13;5077306;28;45643;-76
2023/04/15 05:44:33;;;;;;;;;0.00;0.00;;;;;12.17;72.53;100768.41;5076925;28;45490;-69
2023/04/15 05:46:59;;;;;;;;;0.33;0.00;;;;;12.20;72.67;100763.28;5077146;28;45339;-73
2023/04/15 05:49:24;;;;;;;;;1.00;0.00;;;;;12.14;72.58;100749.16;5076431;28;45313;-68
2023/04/15 05:51:50;;;;;;;;;2.00;2.00;;;;;12.28;72.51;100761.75;5075730;28;45478;-68
2023/04/15 05:54:16;;;;;;;;;1.67;0.67;;;;;12.28;72.48;100756.50;5075835;28;45359;-68
2023/04/15 05:56:41;;;;;;;;;4.00;3.00;;;;;12.36;73.05;100773.31;5076794;28;45560;-68
2023/04/15 05:59:07;;;;;;;;;2.67;1.67;;;;;12.45;72.46;100763.03;5072413;28;46464;-71
2023/04/15 06:01:34;;;;;;;;;1.00;0.00;;;;;12.53;72.39;100768.50;5070532;28;45515;-68
2023/04/15 06:04:00;;;;;;;;;0.00;0.00;;;;;12.50;72.47;100765.81;5072665;28;45545;-74
2023/04/15 06:06:26;;;;;;;;;6.75;5.25;;;;;12.54;72.44;100765.91;5076013;28;45393;-67
2023/04/15 06:08:52;;;;;;;;;2.67;1.00;;;;;12.46;73.16;100761.34;5073476;28;45406;-68
2023/04/15 06:11:19;;;;;;;;;1.00;1.00;;;;;12.56;73.04;100767.72;5075027;28;45913;-69
2023/04/15 06:13:45;;;;;;;;;2.33;2.00;;;;;12.58;72.76;100768.63;5076209;27;45449;-68
2023/04/15 06:16:10;;;;;;;;;1.00;0.00;;;;;12.58;72.76;100768.63;5086032;27;45335;-67
2023/04/15 06:18:36;;;;;;;;;2.00;2.00;;;;;12.57;72.79;100758.97;5082064;27;45417;-67
2023/04/15 06:21:02;;;;;;;;;2.00;1.00;;;;;12.65;73.04;100781.03;5051942;27;45568;-75
2023/04/15 06:23:27;;;;;;;;;1.00;0.00;;;;;12.67;72.66;100789.81;5081197;27;45436;-76
2023/04/15 06:25:53;;;;;;;;;6.25;4.75;;;;;12.71;72.83;100779.47;5066822;27;45578;-68
2023/04/15 06:28:18;;;;;;;;;2.67;2.00;;;;;12.76;72.95;100779.56;5085007;27;45397;-68
2023/04/15 06:30:44;;;;;;;;;1.33;1.00;;;;;12.79;73.06;100790.09;5075649;28;46014;-68
2023/04/15 06:33:09;;;;;;;;;2.67;2.00;;;;;12.86;73.01;100784.19;5076296;28;47067;-69
2023/04/15 06:35:35;;;;;;;;;3.67;2.00;;;;;12.93;73.05;100788.72;5075525;28;45552;-69
2023/04/15 06:38:00;;;;;;;;;2.00;1.00;;;;;12.96;73.05;100794.91;5076029;27;45593;-69
2023/04/15 06:40:26;;;;;;;;;3.00;1.00;;;;;13.01;72.76;100795.88;5065500;28;46401;-68
2023/04/15 06:42:52;;;;;;;;;2.00;1.00;;;;;12.93;72.77;100796.59;5078204;27;45345;-68
2023/04/15 06:45:17;;;;;;;;;0.75;0.50;;;;;12.98;73.22;100783.59;5075797;28;45644;-68
2023/04/15 06:47:43;;;;;;;;;5.00;2.00;;;;;13.04;72.97;100799.47;5075674;28;45433;-68
2023/04/15 06:50:09;;;;;;;;;1.00;0.67;;;;;13.10;72.73;100790.88;5074363;28;45762;-75
2023/04/15 06:52:35;;;;;;;;;1.00;0.67;;;;;13.17;72.70;100792.78;5076390;28;45724;-76
2023/04/15 06:55:01;;;;;;;;;4.00;0.00;;;;;13.19;73.17;100798.97;5075687;28;45486;-69
2023/04/15 06:57:27;;;;;;;;;1.00;1.00;;;;;13.48;72.76;100804.88;5076475;28;45573;-69
2023/04/15 06:59:54;;;;;;;;;2.67;0.00;;;;;13.82;71.08;100808.22;5075403;28;46056;-76
2023/04/15 07:02:20;;;;;;;;;2.00;0.33;;;;;13.91;69.62;100812.81;5060681;28;45395;-68
2023/04/15 07:04:45;;;;;;;;;3.00;2.67;;;;;13.99;70.19;100811.22;5075959;28;45494;-69
2023/04/15 07:07:11;;;;;;;;;1.00;0.00;;;;;13.93;70.30;100811.97;5076256;28;45494;-71
2023/04/15 07:09:37;;;;;;;;;2.33;1.00;;;;;14.02;69.97;100823.53;5057196;28;45481;-71
2023/04/15 07:12:03;;;;;;;;;1.00;0.00;;;;;13.97;69.48;100822.56;5076010;28;45503;-71
2023/04/15 07:14:28;;;;;;;;;1.00;1.00;;;;;13.96;69.94;100824.28;5078329;28;45339;-77
2023/04/15 07:16:54;;;;;;;;;0.33;0.00;;;;;13.94;69.47;100815.47;5079780;28;45370;-71
2023/04/15 07:19:20;;;;;;;;;1.67;0.67;;;;;13.96;69.50;100831.28;5078589;28;46024;-77
2023/04/15 07:21:46;;;;;;;;;1.00;0.67;;;;;13.96;69.44;100837.41;5078671;28;45565;-72
2023/04/15 07:24:15;;;;;;;;;3.00;0.67;;;;;14.00;69.70;100833.13;5078564;28;45467;-78
2023/04/15 07:26:41;;;;;;;;;0.33;0.00;;;;;14.02;69.11;100840.16;5077484;28;45429;-78
2023/04/15 07:29:06;;;;;;;;;0.33;0.00;;;;;13.92;69.06;100839.06;5077405;28;45509;-71
2023/04/15 07:31:32;;;;;;;;;0.00;0.00;;;;;13.78;68.72;100847.53;5077952;28;46096;-78
2023/04/15 07:33:58;;;;;;;;;1.00;0.00;;;;;13.84;68.75;100847.66;5078233;28;45422;-76
2023/04/15 07:36:24;;;;;;;;;0.00;0.00;;;;;13.88;68.36;100863.50;5076706;28;45493;-76
2023/04/15 07:38:49;;;;;;;;;1.00;0.00;;;;;13.69;68.63;100835.97;5078195;28;45936;-72
2023/04/15 07:41:15;;;;;;;;;0.00;0.00;;;;;13.84;68.82;100842.41;5074851;28;45429;-71
2023/04/15 07:43:40;;;;;;;;;0.67;0.00;;;;;14.09;68.48;100847.31;5061550;28;45553;-77
2023/04/15 07:46:06;;;;;;;;;0.00;0.00;;;;;14.36;67.94;100851.34;5073928;28;45323;-77
2023/04/15 07:48:31;;;;;;;;;0.00;0.00;;;;;14.50;67.81;100842.00;5076876;28;45445;-77
2023/04/15 07:50:57;;;;;;;;;1.00;0.00;;;;;14.60;67.38;100834.28;5077424;28;45425;-77
2023/04/15 07:53:23;;;;;;;;;0.00;0.00;;;;;14.49;67.79;100853.34;5077868;28;45581;-75
2023/04/15 07:55:48;;;;;;;;;1.00;0.00;;;;;14.32;68.37;100847.78;5077503;28;45797;-71
2023/04/15 07:58:14;;;;;;;;;0.00;0.00;;;;;14.16;69.03;100850.06;5078073;28;45652;-74
2023/04/15 08:00:40;;;;;;;;;2.00;1.00;;;;;13.81;69.04;100818.72;5064024;28;45544;-72
2023/04/15 08:03:06;;;;;;;;;0.00;0.00;;;;;13.99;69.12;100863.75;5076727;27;45458;-75
2023/04/15 08:05:32;;;;;;;;;1.00;0.00;;;;;14.11;69.58;100868.38;5077478;28;45596;-72
2023/04/15 08:07:57;;;;;;;;;0.00;0.00;;;;;14.26;69.32;100873.03;5077469;28;46058;-71
2023/04/15 08:10:23;;;;;;;;;0.33;0.00;;;;;14.30;69.46;100874.88;5073328;28;45335;-71
2023/04/15 08:12:48;;;;;;;;;0.33;0.00;;;;;14.67;68.81;100870.38;5071030;28;45435;-72
2023/04/15 08:15:14;;;;;;;;;0.00;0.00;;;;;14.89;67.98;100863.75;5069442;28;45875;-71
2023/04/15 08:17:39;;;;;;;;;0.67;0.00;;;;;14.74;67.96;100866.09;5075794;28;46093;-75
2023/04/15 08:20:06;;;;;;;;;0.67;0.00;;;;;14.64;68.31;100879.09;5074368;28;45476;-74
2023/04/15 08:22:31;;;;;;;;;1.00;0.00;;;;;14.51;69.31;100884.94;5076552;28;45418;-77
2023/04/15 08:24:57;;;;;;;;;0.00;0.00;;;;;14.24;69.20;100890.53;5073486;28;45418;-71
2023/04/15 08:27:22;;;;;;;;;0.00;0.00;;;;;14.33;69.49;100899.47;5063529;28;45437;-74
2023/04/15 08:29:48;;;;;;;;;0.00;0.00;;;;;14.42;69.63;100895.25;5075797;28;45605;-71
2023/04/15 08:32:13;;;;;;;;;0.00;0.00;;;;;14.46;69.46;100897.09;5076687;28;45549;-71
2023/04/15 08:34:39;;;;;;;;;1.33;0.00;;;;;14.40;69.26;100892.59;5076311;28;45996;-71
2023/04/15 08:37:05;;;;;;;;;0.00;0.00;;;;;14.40;69.53;100911.00;5075548;28;45379;-71
2023/04/15 08:39:31;;;;;;;;;0.00;0.00;;;;;14.39;69.77;100921.50;5075829;28;45484;-71
2023/04/15 08:42:01;;;;;;;;;0.00;0.00;;;;;14.36;69.83;100926.69;5076798;28;46182;-71
2023/04/15 08:44:30;;;;;;;;;2.00;1.00;;;;;14.10;69.50;100903.38;5068343;28;45520;-75
2023/04/15 08:46:59;;;;;;;;;6.50;6.50;;;;;14.20;69.78;100930.72;5073456;28;46015;-78
2023/04/15 08:49:26;;;;;;;;;1.00;0.00;;;;;14.35;69.64;100932.81;5076383;28;45496;-74
2023/04/15 08:51:52;;;;;;;;;0.00;0.00;;;;;14.64;69.06;100949.19;5076950;28;45408;-76
2023/04/15 08:54:18;;;;;;;;;0.00;0.00;;;;;14.61;68.48;100949.16;5077489;28;45469;-77
2023/04/15 08:56:44;;;;;;;;;0.00;0.00;;;;;14.71;68.23;100951.09;5058629;28;45359;-74
2023/04/15 08:59:10;;;;;;;;;1.00;0.00;;;;;14.59;67.86;100924.56;5060785;28;45568;-73
2023/04/15 09:01:37;;;;;;;;;0.33;0.00;;;;;14.85;67.69;100943.47;5076822;28;45381;-75
2023/04/15 09:04:05;;;;;;;;;0.33;0.00;;;;;14.97;67.45;100942.81;5077107;28;45585;-74
2023/04/15 09:06:30;;;;;;;;;1.00;0.67;;;;;14.86;67.42;100919.84;5073800;28;45767;-74
2023/04/15 09:08:56;;;;;;;;;0.67;0.00;;;;;15.02;66.91;100951.66;5076837;28;45600;-75
2023/04/15 09:11:22;;;;;;;;;1.00;0.67;;;;;14.96;67.39;100938.38;5076395;28;45410;-70
2023/04/15 09:13:48;;;;;;;;;2.00;2.00;;;;;15.04;67.45;100934.16;5058736;28;45482;-71
2023/04/15 09:16:14;;;;;;;;;1.00;0.00;;;;;15.16;66.72;100955.44;5076499;28;46301;-72
2023/04/15 09:18:40;;;;;;;;;0.67;0.00;;;;;15.21;66.67;100947.63;5077092;28;45648;-71
2023/04/15 09:21:08;;;;;;;;;0.00;0.00;;;;;15.27;66.13;100964.41;5043935;28;45347;-71
2023/04/15 09:23:35;;;;;;;;;0.67;0.00;;;;;15.30;66.27;100961.84;5075220;28;45383;-70
2023/04/15 09:26:04;;;;;;;;;1.00;0.00;;;;;15.30;66.26;100969.72;5076836;28;45494;-73
2023/04/15 09:28:30;;;;;;;;;0.33;0.00;;;;;15.30;66.24;100975.00;5047474;28;45477;-71
2023/04/15 09:31:00;;;;;;;;;1.00;0.00;;;;;15.15;65.50;100971.19;5071278;28;45518;-72
2023/04/15 09:33:27;;;;;;;;;2.00;2.00;;;;;15.24;66.17;100977.53;5072421;28;45307;-70
2023/04/15 09:35:59;;;;;;;;;2.00;1.33;;;;;15.42;66.55;100981.31;5072241;28;45602;-71
2023/04/15 09:38:26;;;;;;;;;8.33;8.00;;;;;15.60;65.71;100967.59;5074620;28;45377;-70
2023/04/15 09:40:52;;;;;;;;;1.00;1.00;;;;;15.87;65.02;100973.28;5073804;28;45545;-74
2023/04/15 09:43:17;;;;;;;;;1.00;1.00;;;;;16.04;64.65;100981.47;5076254;28;45628;-72
2023/04/15 09:45:51;;;;;;;;;0.00;0.00;;;;;16.14;64.06;100987.75;5074635;28;45555;-71
2023/04/15 09:48:26;;;;;;;;;2.00;2.00;;;;;16.15;63.81;100978.97;5055523;28;45816;-70
2023/04/15 09:50:52;;;;;;;;;0.00;0.00;;;;;16.52;63.35;100983.88;5058315;28;45578;-70
2023/04/15 09:53:23;;;;;;;;;0.00;0.00;;;;;16.94;61.32;100977.34;5067499;28;45458;-73
2023/04/15 09:55:51;;;;;;;;;1.00;1.00;;;;;16.94;61.32;100975.59;5074848;28;46384;-74
2023/04/15 09:58:20;;;;;;;;;1.00;1.00;;;;;17.04;61.17;100971.28;5070943;28;45488;-72
2023/04/15 10:00:50;;;;;;;;;0.00;0.00;;;;;17.00;60.95;100982.69;5074218;28;45539;-71
2023/04/15 10:03:29;;;;;;;;;1.67;0.67;;;;;16.88;61.13;100978.16;5072698;28;45486;-75
2023/04/15 10:05:57;;;;;;;;;0.67;0.33;;;;;16.73;59.78;100976.19;5072536;28;45486;-75
2023/04/15 10:08:25;;;;;;;;;1.00;0.00;;;;;16.60;61.04;100979.56;5055610;28;45815;-75
2023/04/15 10:10:52;;;;;;;;;20.75;18.00;;;;;16.72;61.20;100974.44;5071939;28;45550;-75
2023/04/15 10:13:21;;;;;;;;;3.00;2.00;;;;;16.46;59.91;100947.75;5071805;28;45500;-71
2023/04/15 10:15:59;;;;;;;;;0.33;0.00;;;;;16.62;60.10;100969.94;5074835;27;45513;-73
2023/04/15 10:18:27;;;;;;;;;0.00;0.00;;;;;16.54;59.91;100988.28;5057343;28;45369;-71
2023/04/15 10:20:54;;;;;;;;;2.33;0.00;;;;;16.42;59.77;100972.31;5075783;28;45565;-71
2023/04/15 10:23:22;;;;;;;;;0.00;0.00;;;;;16.72;60.87;100990.25;5076244;28;45534;-71
2023/04/15 10:25:53;;;;;;;;;0.00;0.00;;;;;16.90;60.90;100993.13;5074336;28;45575;-73
2023/04/15 10:28:19;;;;;;;;;1.00;0.00;;;;;16.83;59.64;100996.59;5057685;28;45615;-73
2023/04/15 10:30:46;;;;;;;;;0.00;0.00;;;;;16.72;59.74;100998.19;5076225;28;45672;-71
2023/04/15 10:33:13;;;;;;;;;3.00;0.00;;;;;16.68;60.69;100989.34;5076506;28;45419;-71
2023/04/15 10:35:39;;;;;;;;;0.00;0.00;;;;;16.62;59.45;100991.03;5075285;28;45473;-73
2023/04/15 10:38:37;;;;;;;;;0.00;0.00;;;;;16.53;59.16;101007.59;5076055;28;45592;-73
2023/04/15 10:41:18;;;;;;;;;5.67;3.33;;;;;16.20;59.54;101003.66;5067609;28;45464;-75
2023/04/15 10:43:59;;;;;;;;;6.67;5.67;;;;;15.90;60.28;101009.38;5073422;28;46050;-70
2023/04/15 10:46:44;;;;;;;;;0.33;0.33;;;;;15.96;60.90;101004.19;5073503;27;45727;-71
2023/04/15 10:49:23;;;;;;;;;3.00;1.00;;;;;16.26;60.67;100998.47;5075399;28;45417;-74
2023/04/15 10:51:56;;;;;;;;;8.33;7.00;;;;;16.44;60.57;101002.22;5077547;28;45469;-70
2023/04/15 10:54:25;;;;;;;;;0.00;0.00;;;;;16.45;59.65;101002.25;5077368;28;45794;-77
2023/04/15 10:57:05;;;;;;;;;0.33;0.00;;;;;16.49;58.37;100996.16;5079582;28;45643;-75
2023/04/15 10:59:52;;;;;;;;;0.00;0.00;;;;;16.66;58.23;100998.97;5078444;28;45445;-72
2023/04/15 11:02:17;;;;;;;;;1.00;0.00;;;;;16.75;56.75;100986.75;5065082;27;45236;-71
2023/04/15 11:04:56;;;;;;;;;0.00;0.00;;;;;16.94;56.66;100993.19;5078476;28;45624;-77
2023/04/15 11:07:43;;;;;;;;;0.67;0.67;;;;;17.09;56.22;100988.97;5065296;28;46326;-77
2023/04/15 11:10:20;;;;;;;;;3.33;3.00;;;;;17.05;55.77;100986.25;5071844;28;45548;-73
2023/04/15 11:12:50;;;;;;;;;1.00;1.00;;;;;17.08;56.06;100986.28;5078682;28;45419;-71
2023/04/15 11:15:46;;;;;;;;;9.67;9.33;;;;;17.17;56.47;100989.03;5076468;28;45382;-72
2023/04/15 11:18:12;;;;;;;;;6.00;6.00;;;;;17.18;55.36;100998.72;5074177;28;45978;-70
2023/04/15 11:20:39;;;;;;;;;2.00;1.00;;;;;17.02;56.19;100971.28;5062380;28;45827;-71
2023/04/15 11:23:05;;;;;;;;;1.33;1.33;;;;;17.06;54.39;100990.69;5079085;27;45437;-70